Flight Track Log - Related Links

Times and Time Zones

All times are in EDT time to prevent confusion due to time zone crossing. See the N240ER flight status page for this flight to view local times or setup timezone preferences in your user account.

Time Position Orientation Groundspeed Altitude Reporting Facility
EDT Latitude Longitude Course Direction KTS MPH feet Rate Location/Type
Fri 04:55:25 PM 42.9333 -87.9000 124° Southeast 126 145 1,300  Level KMKE
Fri 04:56:13 PM 42.9167 -87.8667 124° Southeast 113 130 2,500 1,440 Climbing KMKE
Fri 04:57:05 PM 42.9197 -87.8328 83° East 128 147 3,700 1,357 Climbing Chicago Center
Fri 04:58:08 PM 42.9194 -87.7825 90° East 130 150 5,100 1,381 Climbing Chicago Center
Fri 04:59:11 PM 42.9189 -87.7317 91° East 134 154 6,600 1,488 Climbing Chicago Center
Fri 05:00:13 PM 42.9175 -87.6639 92° East 150 173 8,200 1,452 Climbing Chicago Center
Fri 05:01:15 PM 42.9189 -87.6067 88° East 152 175 9,600 1,355 Climbing Chicago Center
Fri 05:02:17 PM 42.9219 -87.5492 86° East 152 175 11,000 1,355 Climbing Chicago Center
Fri 05:03:19 PM 42.9253 -87.4903 86° East 156 180 12,400 1,355 Climbing Chicago Center
Fri 05:04:21 PM 42.9194 -87.4303 98° East 160 184 13,800 1,306 Climbing Chicago Center
Fri 05:05:23 PM 42.9158 -87.3653 94° East 162 186 15,100 1,258 Climbing Chicago Center
Fri 05:06:25 PM 42.9117 -87.3033 95° East 163 188 16,400 1,161 Climbing Chicago Center
Fri 05:07:27 PM 42.9075 -87.2389 95° East 169 194 17,500 919 Climbing Chicago Center
Fri 05:08:29 PM 42.9033 -87.1703 95° East 180 207 18,300 720 Climbing Chicago Center
Fri 05:09:32 PM 42.8972 -87.0778 95° East 203 234 19,000 336 Climbing Chicago Center
Fri 05:10:34 PM 42.8917 -86.9900 95° East 230 265 19,000  Level Chicago Center
Fri 05:11:36 PM 42.8853 -86.8964 95° East 247 284 19,000  Level Chicago Center
Fri 05:12:38 PM 42.8789 -86.8028 95° East 250 288 19,000  Level Chicago Center
Fri 05:13:40 PM 42.8728 -86.7106 95° East 247 284 19,000  Level Chicago Center
Fri 05:14:42 PM 42.8653 -86.5981 95° East 249 287 19,000  Level Chicago Center
Fri 05:15:44 PM 42.8586 -86.5053 96° East 249 287 19,000  Level Chicago Center
Fri 05:16:46 PM 42.8519 -86.4122 96° East 248 285 19,000  Level Chicago Center
Fri 05:17:48 PM 42.8450 -86.3181 96° East 250 288 19,000  Level Chicago Center
Fri 05:18:50 PM 42.8392 -86.2242 95° East 251 289 19,000  Level Chicago Center
Fri 05:19:53 PM 42.8297 -86.1131 97° East 250 288 19,000  Level Chicago Center
Fri 05:20:55 PM 42.8233 -86.0194 95° East 251 289 19,000  Level Chicago Center
Fri 05:21:57 PM 42.8167 -85.9264 96° East 249 287 19,000  Level Chicago Center
Fri 05:22:59 PM 42.8089 -85.8328 96° East 251 289 19,000  Level Chicago Center
Fri 05:24:01 PM 42.8017 -85.7392 96° East 251 289 19,000  Level Chicago Center
Fri 05:25:03 PM 42.7936 -85.6272 96° East 250 288 19,000  Level Chicago Center
Fri 05:26:05 PM 42.7858 -85.5322 96° East 252 290 19,000  Level Chicago Center
Fri 05:27:07 PM 42.7783 -85.4381 96° East 252 290 19,000  Level Chicago Center
Fri 05:28:09 PM 42.7708 -85.3439 96° East 252 290 19,000  Level Chicago Center
Fri 05:29:11 PM 42.7644 -85.2508 95° East 250 288 19,000  Level Chicago Center
Fri 05:30:13 PM 42.7547 -85.1378 97° East 251 289 19,000  Level Chicago Center
Fri 05:31:15 PM 42.7469 -85.0439 96° East 250 288 19,000  Level Chicago Center
Fri 05:32:18 PM 42.7389 -84.9500 97° East 250 288 19,000 -48 Level Chicago Center
Fri 05:33:20 PM 42.7314 -84.8550 96° East 253 291 18,900 -484 Descending Chicago Center
Fri 05:34:22 PM 42.7236 -84.7606 96° East 252 290 18,000 -823 Descending Chicago Center
Fri 05:35:24 PM 42.7153 -84.6700 97° East 244 281 17,200 -1,161 Descending Chicago Center
Fri 05:36:26 PM 42.7136 -84.5664 91° East 229 264 15,600 -1,403 Descending Chicago Center
Fri 05:37:28 PM 42.7108 -84.4861 93° East 216 249 14,300 -1,258 Descending Chicago Center
Fri 05:38:30 PM 42.7119 -84.4092 89° East 207 238 13,000 -1,306 Descending Chicago Center
Fri 05:39:32 PM 42.7139 -84.3333 88° East 206 237 11,600 -1,431 Descending Cleveland Center
Fri 05:40:19 PM 42.7119 -84.2625 92° East 213 245 10,400 -1,438 Descending Cleveland Center
Fri 05:41:08 PM 42.7119 -84.1947 90° East 217 250 9,300 -1,255 Descending Cleveland Center
Fri 05:42:09 PM 42.7081 -84.1211 94° East 202 232 8,100 -940 Descending Cleveland Center
Fri 05:43:22 PM 42.7086 -84.0333 89° East 184 212 7,200 -844 Descending Cleveland Center
Fri 05:44:17 PM 42.6917 -83.9731 111° Southeast 194 223 6,300 -934 Descending Cleveland Center
Fri 05:45:24 PM 42.6625 -83.9039 120° Southeast 193 222 5,300 -756 Descending Cleveland Center
Fri 05:46:32 PM 42.6458 -83.8294 107° East 178 205 4,600 -667 Descending Cleveland Center
Fri 05:47:21 PM 42.6453 -83.7731 91° East 175 201 4,000 -517 Descending Cleveland Center
Fri 05:48:28 PM 42.6453 -83.6997 90° East 181 208 3,600 -469 Descending Cleveland Center
Fri 05:49:29 PM 42.6450 -83.6319 90° East 187 215 3,000 -310 Descending Cleveland Center
Fri 05:50:24 PM 42.6467 -83.5669 88° East 177 204 3,000 -359 Level Cleveland Center
Fri 05:51:26 PM 42.6522 -83.5136 82° East 123 142 2,300 -683 Descending Cleveland Center
Fri 05:52:27 PM 42.6636 -83.4775 67° East 86 99 1,600 -689 Descending Cleveland Center

Login

Don't have an account? Register now (free) for customized features, flight alerts, and more!